createdAt,value
2019-03-06T00:00:50.750Z,75.80
2019-03-06T00:03:19.281Z,75.80
2019-03-06T00:05:47.715Z,75.80
2019-03-06T00:08:16.446Z,75.70
2019-03-06T00:10:45.050Z,75.70
2019-03-06T00:13:13.575Z,75.90
2019-03-06T00:15:42.083Z,75.70
2019-03-06T00:18:10.517Z,75.60
2019-03-06T00:20:38.979Z,75.60
2019-03-06T00:23:07.417Z,75.60
2019-03-06T00:25:35.875Z,75.90
2019-03-06T00:28:04.385Z,76.00
2019-03-06T00:30:32.844Z,76.00
2019-03-06T00:33:01.279Z,75.90
2019-03-06T00:35:46.624Z,76.00
2019-03-06T00:38:15.084Z,76.80
2019-03-06T00:40:50.926Z,76.10
2019-03-06T00:43:19.376Z,76.30
2019-03-06T00:45:47.913Z,76.40
2019-03-06T00:48:16.349Z,76.60
2019-03-06T00:50:45.081Z,76.50
2019-03-06T00:53:13.516Z,76.60
2019-03-06T00:55:41.960Z,76.80
2019-03-06T00:58:10.416Z,76.80
2019-03-06T01:00:38.930Z,76.80
2019-03-06T01:03:07.630Z,77.00
2019-03-06T01:05:36.080Z,77.00
2019-03-06T01:08:04.675Z,76.90
2019-03-06T01:10:33.115Z,76.90
2019-03-06T01:13:01.571Z,76.80
2019-03-06T01:15:30.012Z,76.80
2019-03-06T01:17:58.483Z,76.50
2019-03-06T01:20:26.987Z,76.60
2019-03-06T01:22:55.427Z,76.60
2019-03-06T01:25:23.888Z,76.40
2019-03-06T01:27:52.422Z,76.60
2019-03-06T01:30:25.732Z,76.60
2019-03-06T01:33:07.563Z,76.60
2019-03-06T01:35:40.471Z,76.80
2019-03-06T01:38:10.740Z,76.80
2019-03-06T01:40:43.623Z,76.80
2019-03-06T01:43:16.696Z,76.40
2019-03-06T01:45:45.147Z,76.50
2019-03-06T01:48:13.865Z,76.60
2019-03-06T01:50:42.334Z,76.70
2019-03-06T01:53:10.855Z,76.60
2019-03-06T01:55:39.590Z,76.90
2019-03-06T01:58:08.031Z,76.90
2019-03-06T02:00:37.596Z,76.90
2019-03-06T02:03:06.043Z,76.80
2019-03-06T02:05:34.508Z,76.70
2019-03-06T02:08:02.961Z,76.60
2019-03-06T02:10:32.140Z,76.80
2019-03-06T02:13:00.676Z,76.80
2019-03-06T02:15:29.119Z,76.80
2019-03-06T02:17:57.559Z,76.70
2019-03-06T02:20:26.027Z,76.90
2019-03-06T02:22:54.463Z,76.90
2019-03-06T02:25:23.260Z,76.90
2019-03-06T02:27:51.767Z,76.80
2019-03-06T02:30:22.493Z,76.60
2019-03-06T02:32:51.259Z,77.50
2019-03-06T02:35:19.791Z,77.00
2019-03-06T02:37:48.326Z,76.60
2019-03-06T02:40:16.854Z,76.60
2019-03-06T02:42:45.372Z,76.50
2019-03-06T02:45:18.824Z,76.50
2019-03-06T02:47:47.296Z,76.60
2019-03-06T02:50:17.054Z,76.40
2019-03-06T02:52:45.511Z,76.50
2019-03-06T02:55:16.275Z,76.50
2019-03-06T02:57:46.398Z,76.60
2019-03-06T03:00:27.659Z,76.50
2019-03-06T03:02:56.955Z,76.60
2019-03-06T03:05:26.251Z,75.70
2019-03-06T03:07:53.999Z,75.10
2019-03-06T03:10:21.674Z,75.40
2019-03-06T03:12:49.349Z,75.40
2019-03-06T03:15:17.181Z,75.30
2019-03-06T03:17:44.924Z,75.70
2019-03-06T03:20:12.674Z,75.50
2019-03-06T03:22:40.350Z,75.50
2019-03-06T03:25:08.119Z,75.50
2019-03-06T03:27:35.800Z,75.50
2019-03-06T03:30:04.736Z,75.70
2019-03-06T03:32:32.398Z,75.80
2019-03-06T03:35:00.607Z,75.30
2019-03-06T03:37:28.700Z,74.70
2019-03-06T03:39:56.426Z,74.60
2019-03-06T03:42:24.110Z,75.20
2019-03-06T03:44:51.805Z,75.70
2019-03-06T03:47:19.463Z,75.50
2019-03-06T03:49:47.158Z,75.70
2019-03-06T03:52:14.894Z,74.80
2019-03-06T03:54:42.572Z,75.30
2019-03-06T03:57:10.711Z,75.00
2019-03-06T03:59:38.448Z,74.90
2019-03-06T04:02:06.206Z,75.00
2019-03-06T04:04:33.967Z,74.70
2019-03-06T04:07:01.703Z,74.80
2019-03-06T04:09:29.360Z,74.70
2019-03-06T04:11:57.322Z,74.70
2019-03-06T04:14:25.056Z,74.70
2019-03-06T04:16:52.815Z,74.80
2019-03-06T04:19:20.491Z,74.90
2019-03-06T04:21:48.155Z,74.90
2019-03-06T04:24:15.977Z,74.90
2019-03-06T04:26:43.875Z,75.10
2019-03-06T04:29:11.536Z,75.20
2019-03-06T04:31:39.284Z,75.00
2019-03-06T04:34:06.952Z,75.00
2019-03-06T04:36:34.612Z,75.00
2019-03-06T04:39:02.829Z,74.90
2019-03-06T04:41:30.493Z,74.90
2019-03-06T04:43:58.144Z,74.90
2019-03-06T04:46:25.946Z,74.90
2019-03-06T04:48:53.611Z,75.00
2019-03-06T04:51:21.287Z,74.90
2019-03-06T04:53:49.225Z,75.00
2019-03-06T04:56:16.922Z,75.00
2019-03-06T04:58:44.607Z,75.20
2019-03-06T05:01:12.360Z,75.10
2019-03-06T05:03:40.012Z,75.10
2019-03-06T05:06:07.721Z,75.20
2019-03-06T05:08:35.445Z,75.50
2019-03-06T05:11:03.115Z,75.40
2019-03-06T05:13:30.766Z,75.30
2019-03-06T05:15:58.434Z,75.50
2019-03-06T05:18:33.721Z,75.60
2019-03-06T05:21:01.452Z,76.00
2019-03-06T05:23:29.134Z,75.60
2019-03-06T05:25:56.802Z,75.90
2019-03-06T05:28:24.586Z,75.70
2019-03-06T05:30:52.320Z,76.60
2019-03-06T05:33:20.044Z,76.00
2019-03-06T05:36:07.275Z,76.20
2019-03-06T05:38:39.664Z,76.30
2019-03-06T05:41:07.321Z,75.90
2019-03-06T05:43:34.978Z,76.00
2019-03-06T05:46:02.685Z,76.00
2019-03-06T05:48:30.362Z,76.10
2019-03-06T05:50:58.015Z,76.00
2019-03-06T05:53:25.718Z,75.90
2019-03-06T05:55:53.566Z,76.40
2019-03-06T05:58:21.228Z,75.90
2019-03-06T06:00:48.951Z,75.90
2019-03-06T06:03:16.606Z,75.50
2019-03-06T06:05:44.292Z,75.70
2019-03-06T06:08:12.046Z,76.10
2019-03-06T06:10:39.715Z,75.90
2019-03-06T06:13:07.372Z,75.50
2019-03-06T06:15:35.061Z,74.60
2019-03-06T06:18:02.798Z,75.60
2019-03-06T06:20:30.465Z,75.70
2019-03-06T06:23:03.093Z,76.60
2019-03-06T06:25:32.386Z,75.90
2019-03-06T06:28:00.044Z,76.30
2019-03-06T06:30:27.746Z,75.10
2019-03-06T06:32:55.475Z,75.80
2019-03-06T06:35:23.471Z,75.90
2019-03-06T06:37:51.162Z,75.20
2019-03-06T06:40:18.823Z,76.00
2019-03-06T06:42:46.508Z,75.50
2019-03-06T06:45:33.496Z,75.00
2019-03-06T06:48:05.427Z,75.90
2019-03-06T06:50:33.098Z,75.50
2019-03-06T06:53:11.241Z,75.50
2019-03-06T06:55:40.767Z,76.10
2019-03-06T06:58:15.929Z,75.60
2019-03-06T07:00:52.190Z,76.10
2019-03-06T07:03:37.222Z,76.00
2019-03-06T07:06:15.303Z,75.40
2019-03-06T07:08:50.474Z,77.00
2019-03-06T07:11:28.437Z,76.10
2019-03-06T07:13:57.735Z,75.20
2019-03-06T07:16:27.058Z,75.90
2019-03-06T07:19:11.373Z,76.70
2019-03-06T07:21:55.481Z,75.80
2019-03-06T07:24:24.876Z,74.80
2019-03-06T07:27:16.954Z,76.10
2019-03-06T07:30:01.669Z,74.80
2019-03-06T07:32:39.902Z,75.10
2019-03-06T07:35:43.549Z,75.70
2019-03-06T07:38:11.762Z,75.90
2019-03-06T07:40:59.774Z,74.80
2019-03-06T07:43:34.876Z,76.00
2019-03-06T07:46:19.431Z,76.30
2019-03-06T07:49:05.230Z,76.30
2019-03-06T07:51:49.571Z,75.80
2019-03-06T07:54:30.859Z,75.90
2019-03-06T07:57:12.029Z,76.00
2019-03-06T07:59:39.771Z,76.20
2019-03-06T08:02:11.979Z,75.80
2019-03-06T08:04:39.757Z,76.20
2019-03-06T08:07:09.055Z,75.70
2019-03-06T08:09:36.711Z,75.90
2019-03-06T08:12:06.499Z,76.40
2019-03-06T08:14:41.388Z,75.40
2019-03-06T08:17:27.139Z,75.10
2019-03-06T08:19:56.865Z,75.70
2019-03-06T08:22:28.894Z,76.80
2019-03-06T08:24:58.200Z,76.60
2019-03-06T08:27:26.395Z,75.50
2019-03-06T08:29:54.199Z,76.30
2019-03-06T08:32:23.511Z,75.80
2019-03-06T08:34:51.171Z,75.80
2019-03-06T08:37:18.860Z,75.90
2019-03-06T08:39:46.586Z,76.40
2019-03-06T08:42:14.247Z,76.20
2019-03-06T08:44:42.295Z,75.80
2019-03-06T08:47:17.575Z,75.90
2019-03-06T08:49:46.912Z,75.90
2019-03-06T08:52:18.596Z,76.10
2019-03-06T08:55:02.862Z,75.40
2019-03-06T08:57:41.111Z,74.70
2019-03-06T09:00:30.624Z,75.10
2019-03-06T09:03:17.534Z,75.20
2019-03-06T09:05:58.632Z,76.00
2019-03-06T09:08:30.759Z,76.10
2019-03-06T09:11:08.943Z,75.70
2019-03-06T09:13:38.237Z,76.50
2019-03-06T09:16:19.466Z,76.20
2019-03-06T09:18:48.874Z,74.80
2019-03-06T09:21:20.892Z,75.40
2019-03-06T09:24:01.991Z,77.60
2019-03-06T09:26:33.719Z,76.70
2019-03-06T09:29:03.153Z,76.80
2019-03-06T09:31:48.780Z,77.10
2019-03-06T09:34:18.076Z,76.40
2019-03-06T09:37:05.674Z,75.80
2019-03-06T09:39:35.057Z,74.00
2019-03-06T09:42:21.059Z,75.60
2019-03-06T09:44:53.043Z,75.60
2019-03-06T09:47:22.366Z,75.70
2019-03-06T09:50:04.529Z,74.90
2019-03-06T09:52:50.346Z,76.30
2019-03-06T09:55:25.462Z,75.60
2019-03-06T09:57:55.358Z,76.50
2019-03-06T10:00:24.669Z,76.30
2019-03-06T10:02:53.983Z,76.30
2019-03-06T10:05:26.232Z,74.30
2019-03-06T10:07:55.545Z,74.10
2019-03-06T10:10:24.918Z,73.70
2019-03-06T10:12:54.239Z,75.00
2019-03-06T10:15:23.543Z,74.60
2019-03-06T10:18:01.631Z,72.60
2019-03-06T10:20:29.587Z,75.50
2019-03-06T10:25:30.120Z,75.40
2019-03-06T10:28:05.723Z,75.30
2019-03-06T10:30:25.681Z,74.80
2019-03-06T10:32:53.609Z,73.30
2019-03-06T10:35:21.365Z,74.00
2019-03-06T10:37:49.305Z,72.90
2019-03-06T10:40:17.984Z,74.70
2019-03-06T10:42:45.698Z,74.40
2019-03-06T10:45:16.738Z,74.10
2019-03-06T10:47:45.174Z,74.70
2019-03-06T10:50:14.801Z,73.90
2019-03-06T10:52:42.546Z,74.20
2019-03-06T10:55:11.865Z,73.70
2019-03-06T10:57:39.604Z,73.80
2019-03-06T11:00:08.982Z,73.40
2019-03-06T11:02:36.723Z,71.50
2019-03-06T11:05:07.571Z,73.00
2019-03-06T11:07:35.336Z,73.30
2019-03-06T11:10:04.287Z,73.10
2019-03-06T11:12:32.030Z,74.40
2019-03-06T11:14:59.787Z,72.60
2019-03-06T11:17:27.614Z,71.50
2019-03-06T11:19:55.589Z,74.40
2019-03-06T11:22:23.243Z,74.10
2019-03-06T11:24:50.923Z,72.50
2019-03-06T11:27:18.590Z,72.80
2019-03-06T11:29:46.609Z,71.80
2019-03-06T11:32:14.415Z,72.40
2019-03-06T11:34:42.171Z,71.90
2019-03-06T11:37:09.938Z,72.60
2019-03-06T11:39:37.663Z,72.80
2019-03-06T11:42:05.416Z,73.40
2019-03-06T11:44:33.181Z,69.00
2019-03-06T11:47:01.393Z,72.20
2019-03-06T11:49:29.938Z,72.10
2019-03-06T11:51:57.618Z,70.50
2019-03-06T11:54:25.292Z,70.00
2019-03-06T11:56:53.050Z,71.00
2019-03-06T11:59:20.793Z,72.20
2019-03-06T12:01:48.567Z,72.80
2019-03-06T12:04:16.285Z,69.60
2019-03-06T12:06:44.090Z,69.20
2019-03-06T12:09:25.262Z,72.20
2019-03-06T12:11:53.091Z,68.10
2019-03-06T12:14:20.831Z,71.30
2019-03-06T12:16:48.868Z,71.30
2019-03-06T12:19:16.615Z,72.20
2019-03-06T12:21:44.349Z,72.20
2019-03-06T12:24:13.183Z,71.40
2019-03-06T12:26:41.137Z,69.90
2019-03-06T12:29:08.876Z,68.40
2019-03-06T12:31:36.631Z,67.30
2019-03-06T12:34:04.375Z,71.20
2019-03-06T12:36:32.050Z,70.30
2019-03-06T12:38:59.883Z,71.40
2019-03-06T12:41:27.592Z,71.60
2019-03-06T12:43:55.331Z,69.40
2019-03-06T12:46:24.195Z,71.00
2019-03-06T12:48:56.540Z,70.50
2019-03-06T12:51:24.323Z,70.30
2019-03-06T12:53:52.068Z,70.50
2019-03-06T12:56:19.751Z,70.50
2019-03-06T12:58:47.499Z,70.50
2019-03-06T13:01:15.215Z,70.00
2019-03-06T13:03:42.883Z,64.80
2019-03-06T13:06:10.546Z,70.20
2019-03-06T13:08:38.592Z,71.50
2019-03-06T13:11:06.409Z,70.60
2019-03-06T13:13:35.781Z,69.60
2019-03-06T13:16:04.042Z,70.70
2019-03-06T13:18:31.759Z,70.50
2019-03-06T13:20:59.431Z,69.00
2019-03-06T13:23:27.110Z,69.90
2019-03-06T13:25:54.843Z,71.00
2019-03-06T13:28:22.642Z,70.50
2019-03-06T13:30:50.370Z,69.70
2019-03-06T13:33:31.881Z,67.90
2019-03-06T13:35:59.622Z,71.30
2019-03-06T13:38:27.559Z,69.40
2019-03-06T13:40:55.243Z,68.90
2019-03-06T13:43:22.978Z,69.30
2019-03-06T13:45:50.687Z,68.60
2019-03-06T13:48:18.426Z,63.80
2019-03-06T13:50:46.095Z,68.60
2019-03-06T13:53:20.030Z,69.70
2019-03-06T13:55:43.151Z,68.60
2019-03-06T13:58:10.975Z,69.60
2019-03-06T14:00:38.717Z,69.40
2019-03-06T14:03:06.842Z,67.80
2019-03-06T14:05:34.599Z,66.40
2019-03-06T14:08:02.603Z,67.10
2019-03-06T14:10:30.281Z,65.10
2019-03-06T14:12:58.016Z,68.70
2019-03-06T14:15:25.936Z,68.50
2019-03-06T14:17:53.779Z,66.80
2019-03-06T14:20:23.119Z,66.90
2019-03-06T14:22:50.948Z,67.60
2019-03-06T14:25:19.295Z,66.80
2019-03-06T14:27:47.303Z,67.10
2019-03-06T14:30:15.907Z,65.10
2019-03-06T14:32:43.660Z,65.60
2019-03-06T14:35:11.832Z,64.00
2019-03-06T14:37:39.620Z,64.10
2019-03-06T14:40:11.788Z,66.00
2019-03-06T14:42:39.723Z,65.90
2019-03-06T14:45:08.932Z,64.10
2019-03-06T14:47:36.711Z,63.80
2019-03-06T14:50:05.423Z,63.50
2019-03-06T14:52:33.183Z,65.30
2019-03-06T14:55:01.268Z,66.30
2019-03-06T14:57:29.027Z,66.30
2019-03-06T14:59:56.778Z,65.60
2019-03-06T15:02:24.510Z,66.10
2019-03-06T15:04:52.323Z,63.40
2019-03-06T15:07:20.010Z,66.80
2019-03-06T15:09:47.759Z,65.00
2019-03-06T15:12:15.422Z,66.00
2019-03-06T15:14:43.695Z,67.00
2019-03-06T15:17:11.431Z,63.60
2019-03-06T15:19:39.328Z,63.70
2019-03-06T15:22:07.252Z,66.00
2019-03-06T15:24:41.430Z,63.80
2019-03-06T15:27:04.423Z,66.40
2019-03-06T15:29:32.152Z,66.40
2019-03-06T15:31:59.931Z,67.90
2019-03-06T15:34:27.597Z,65.30
2019-03-06T15:36:55.347Z,65.80
2019-03-06T15:39:24.636Z,64.70
2019-03-06T15:42:00.095Z,66.40
2019-03-06T15:44:21.816Z,65.90
2019-03-06T15:46:49.651Z,65.00
2019-03-06T15:49:17.390Z,62.70
2019-03-06T15:51:45.164Z,65.90
2019-03-06T15:54:13.666Z,64.80
2019-03-06T15:56:41.483Z,65.50
2019-03-06T15:59:14.815Z,66.90
2019-03-06T16:01:38.658Z,67.00
2019-03-06T16:04:06.394Z,67.70
2019-03-06T16:06:34.141Z,66.50
2019-03-06T16:09:01.943Z,67.30
2019-03-06T16:11:29.682Z,67.90
2019-03-06T16:13:57.347Z,68.00
2019-03-06T16:16:25.183Z,66.90
2019-03-06T16:18:52.947Z,66.50
2019-03-06T16:21:20.723Z,68.10
2019-03-06T16:23:48.459Z,67.60
2019-03-06T16:26:16.200Z,68.40
2019-03-06T16:30:10.775Z,68.80
2019-03-06T16:32:38.446Z,67.30
2019-03-06T16:35:06.357Z,67.60
2019-03-06T16:44:09.572Z,72.30
2019-03-06T16:46:38.026Z,73.20
2019-03-06T16:49:06.697Z,71.50
2019-03-06T16:51:35.236Z,69.90
2019-03-06T16:54:03.887Z,69.20
2019-03-06T16:56:32.503Z,69.00
2019-03-06T16:59:01.124Z,69.20
2019-03-06T17:01:29.778Z,69.10
2019-03-06T17:03:58.306Z,69.00
2019-03-06T17:06:27.110Z,69.40
2019-03-06T17:08:55.701Z,69.80
2019-03-06T17:11:24.610Z,69.60
2019-03-06T17:13:53.124Z,70.20
2019-03-06T17:16:21.755Z,70.50
2019-03-06T17:18:50.275Z,70.60
2019-03-06T17:21:18.930Z,70.60
2019-03-06T17:23:47.515Z,71.00
2019-03-06T17:26:16.137Z,71.30
2019-03-06T17:28:44.659Z,71.70
2019-03-06T17:31:13.215Z,72.10
2019-03-06T17:33:41.743Z,72.50
2019-03-06T17:36:10.335Z,72.40
2019-03-06T17:38:38.965Z,72.60
2019-03-06T17:41:07.775Z,73.00
2019-03-06T17:43:36.295Z,73.20
2019-03-06T17:46:05.473Z,73.50
2019-03-06T17:48:34.059Z,73.60
2019-03-06T17:51:02.594Z,73.90
2019-03-06T17:53:31.129Z,73.90
2019-03-06T17:55:59.846Z,74.10
2019-03-06T17:58:28.459Z,74.30
2019-03-06T18:01:01.477Z,74.50
2019-03-06T18:03:31.632Z,74.40
2019-03-06T18:06:00.158Z,74.60
2019-03-06T18:08:28.667Z,74.70
2019-03-06T18:10:57.499Z,74.80
2019-03-06T18:13:26.038Z,75.00
2019-03-06T18:15:54.567Z,75.20
2019-03-06T18:18:23.084Z,75.20
2019-03-06T18:20:51.626Z,75.20
2019-03-06T18:23:20.130Z,75.20
2019-03-06T18:25:49.047Z,75.30
2019-03-06T18:28:17.638Z,75.50
2019-03-06T18:30:46.271Z,76.20
2019-03-06T18:33:14.863Z,75.40
2019-03-06T18:35:43.384Z,75.50
2019-03-06T18:38:11.968Z,75.60
2019-03-06T18:40:40.487Z,75.80
2019-03-06T18:43:09.029Z,75.70
2019-03-06T18:45:37.543Z,75.80
2019-03-06T18:48:06.148Z,75.90
2019-03-06T18:50:34.679Z,76.50
2019-03-06T18:53:03.224Z,75.80
2019-03-06T18:55:31.668Z,75.90
2019-03-06T18:58:00.384Z,75.90
2019-03-06T19:00:33.713Z,76.10
2019-03-06T19:03:02.354Z,76.20
2019-03-06T19:05:30.887Z,76.20
2019-03-06T19:07:59.476Z,76.00
2019-03-06T19:10:28.103Z,76.00
2019-03-06T19:12:56.634Z,76.10
2019-03-06T19:15:26.409Z,76.20
2019-03-06T19:17:55.012Z,76.00
2019-03-06T19:20:23.979Z,76.10
2019-03-06T19:22:53.150Z,76.10
2019-03-06T19:25:22.066Z,76.30
2019-03-06T19:27:52.366Z,76.20
2019-03-06T19:30:24.589Z,76.20
2019-03-06T19:32:53.198Z,76.20
2019-03-06T19:35:23.715Z,76.00
2019-03-06T19:37:51.462Z,76.10
2019-03-06T19:40:19.998Z,74.90
2019-03-06T19:42:48.586Z,76.00
2019-03-06T19:45:24.344Z,76.10
2019-03-06T19:47:52.898Z,76.20
2019-03-06T19:50:25.734Z,76.20
2019-03-06T19:52:54.460Z,76.10
2019-03-06T19:55:23.462Z,76.00
2019-03-06T19:58:05.600Z,76.10
2019-03-06T20:00:34.313Z,76.20
2019-03-06T20:03:03.256Z,76.20
2019-03-06T20:05:39.620Z,76.20
2019-03-06T20:08:13.231Z,76.30
2019-03-06T20:10:42.035Z,76.30
2019-03-06T20:13:11.500Z,76.30
2019-03-06T20:15:41.183Z,76.20
2019-03-06T20:18:10.163Z,76.20
2019-03-06T20:20:39.014Z,76.20
2019-03-06T20:23:08.378Z,76.20
2019-03-06T20:25:37.291Z,76.10
2019-03-06T20:28:05.874Z,76.30
2019-03-06T20:30:34.467Z,76.10
2019-03-06T20:33:02.994Z,75.90
2019-03-06T20:35:31.442Z,75.90
2019-03-06T20:38:00.819Z,75.70
2019-03-06T20:40:29.348Z,75.70
2019-03-06T20:42:57.883Z,75.60
2019-03-06T20:45:26.489Z,75.50
2019-03-06T20:47:55.018Z,75.20
2019-03-06T20:50:23.488Z,75.30
2019-03-06T20:52:52.018Z,75.30
2019-03-06T20:55:20.560Z,75.40
2019-03-06T20:57:49.073Z,75.20
2019-03-06T21:00:25.474Z,74.90
2019-03-06T21:02:54.027Z,74.90
2019-03-06T21:05:22.547Z,74.70
2019-03-06T21:07:51.096Z,74.60
2019-03-06T21:10:20.455Z,74.70
2019-03-06T21:12:48.968Z,74.60
2019-03-06T21:15:20.116Z,74.80
2019-03-06T21:17:48.634Z,74.50
2019-03-06T21:20:19.573Z,74.50
2019-03-06T21:22:48.316Z,74.50
2019-03-06T21:25:18.101Z,74.50
2019-03-06T21:27:46.689Z,74.50
2019-03-06T21:30:21.991Z,74.50
2019-03-06T21:32:50.598Z,74.50
2019-03-06T21:35:19.151Z,74.40
2019-03-06T21:37:47.664Z,74.40
2019-03-06T21:40:17.578Z,74.20
2019-03-06T21:42:46.607Z,73.60
2019-03-06T21:45:15.723Z,73.90
2019-03-06T21:47:44.218Z,73.80
2019-03-06T21:50:16.873Z,73.60
2019-03-06T21:52:45.408Z,73.30
2019-03-06T21:55:15.168Z,73.60
2019-03-06T21:57:44.246Z,73.40
2019-03-06T22:00:23.929Z,73.40
2019-03-06T22:02:52.447Z,73.10
2019-03-06T22:05:20.970Z,72.90
2019-03-06T22:07:50.764Z,72.80
2019-03-06T22:10:19.955Z,72.80
2019-03-06T22:12:48.465Z,72.50
2019-03-06T22:15:18.831Z,72.50
2019-03-06T22:17:47.298Z,72.70
2019-03-06T22:20:15.967Z,72.60
2019-03-06T22:22:44.509Z,72.50
2019-03-06T22:25:16.136Z,72.70
2019-03-06T22:27:44.666Z,72.70
2019-03-06T22:30:18.685Z,72.70
2019-03-06T22:32:47.272Z,72.20
2019-03-06T22:35:15.863Z,72.30
2019-03-06T22:37:44.387Z,72.30
2019-03-06T22:40:15.809Z,72.20
2019-03-06T22:42:44.340Z,72.10
2019-03-06T22:45:17.628Z,72.10
2019-03-06T22:47:46.227Z,71.50
2019-03-06T22:50:15.987Z,71.90
2019-03-06T22:52:44.511Z,72.00
2019-03-06T22:55:17.981Z,71.80
2019-03-06T22:57:46.547Z,71.80
2019-03-06T23:00:29.904Z,71.80
2019-03-06T23:02:58.671Z,71.80
2019-03-06T23:05:33.043Z,71.30
2019-03-06T23:08:01.571Z,71.20
2019-03-06T23:10:30.083Z,71.50
2019-03-06T23:12:58.724Z,71.30
2019-03-06T23:15:27.446Z,71.50
2019-03-06T23:17:57.604Z,71.30
2019-03-06T23:20:26.130Z,71.20
2019-03-06T23:22:54.657Z,71.00
2019-03-06T23:25:23.181Z,70.70
2019-03-06T23:27:51.754Z,70.50
2019-03-06T23:30:20.343Z,70.50
2019-03-06T23:32:49.151Z,70.60
2019-03-06T23:35:17.645Z,70.60
2019-03-06T23:37:46.118Z,70.70
2019-03-06T23:40:14.580Z,70.90
2019-03-06T23:42:43.166Z,70.70
2019-03-06T23:45:13.167Z,70.60
2019-03-06T23:47:42.179Z,70.70
2019-03-06T23:50:12.241Z,70.80
2019-03-06T23:52:58.723Z,70.60
2019-03-06T23:55:28.940Z,70.50
2019-03-06T23:57:57.651Z,69.80
